createdAt,value
2022-12-28T00:04:36.141Z,6.30
2022-12-28T00:07:14.762Z,6.30
2022-12-28T00:09:43.856Z,6.30
2022-12-28T00:12:12.545Z,6.30
2022-12-28T00:20:00.794Z,6.30
2022-12-28T00:22:30.865Z,6.30
2022-12-28T00:27:36.096Z,6.30
2022-12-28T00:30:05.383Z,6.30
2022-12-28T00:35:10.256Z,6.30
2022-12-28T00:37:44.712Z,6.30
2022-12-28T00:40:16.416Z,6.30
2022-12-28T00:42:48.646Z,6.30
2022-12-28T00:47:59.801Z,6.30
2022-12-28T00:50:28.136Z,6.30
2022-12-28T00:52:57.696Z,6.30
2022-12-28T00:55:26.167Z,6.30
2022-12-28T01:00:31.850Z,6.30
2022-12-28T01:03:01.365Z,6.30
2022-12-28T01:05:30.262Z,6.30
2022-12-28T01:08:01.226Z,6.40
2022-12-28T01:13:14.982Z,6.40
2022-12-28T01:15:44.373Z,6.40
2022-12-28T01:18:13.111Z,6.40
2022-12-28T01:20:42.105Z,6.30
2022-12-28T01:23:14.012Z,6.40
2022-12-28T01:28:38.454Z,6.40
2022-12-28T01:31:08.174Z,6.40
2022-12-28T01:33:49.355Z,6.30
2022-12-28T01:39:01.792Z,6.30
2022-12-28T01:41:31.252Z,6.30
2022-12-28T01:52:09.049Z,6.20
2022-12-28T02:09:20.327Z,6.10
2022-12-28T02:11:50.035Z,6.10
2022-12-28T02:32:02.005Z,6.00
2022-12-28T02:34:38.984Z,6.00
2022-12-28T02:37:15.605Z,5.90
2022-12-28T02:39:49.622Z,5.90
2022-12-28T02:42:19.009Z,5.90
2022-12-28T02:45:04.240Z,5.90
2022-12-28T02:47:51.336Z,5.90
2022-12-28T02:50:19.819Z,5.80
2022-12-28T02:53:09.282Z,5.80
2022-12-28T02:56:10.157Z,5.80
2022-12-28T02:59:10.497Z,5.80
2022-12-28T03:01:55.134Z,5.80
2022-12-28T03:04:36.929Z,5.80
2022-12-28T03:07:28.605Z,5.80
2022-12-28T03:10:08.442Z,5.80
2022-12-28T03:12:44.564Z,5.80
2022-12-28T03:15:30.104Z,5.80
2022-12-28T03:18:21.447Z,5.80
2022-12-28T03:21:11.439Z,5.80
2022-12-28T03:24:01.985Z,5.80
2022-12-28T03:26:51.726Z,5.90
2022-12-28T03:29:41.777Z,5.90
2022-12-28T03:32:10.685Z,5.90
2022-12-28T03:34:44.358Z,5.90
2022-12-28T03:55:21.524Z,5.90
2022-12-28T04:11:15.502Z,5.90
2022-12-28T04:14:17.215Z,5.90
2022-12-28T04:16:52.235Z,5.90
2022-12-28T04:19:23.343Z,5.90
2022-12-28T04:31:03.295Z,6.00
2022-12-28T04:33:42.337Z,6.00
2022-12-28T04:36:20.192Z,6.00
2022-12-28T04:38:54.353Z,6.00
2022-12-28T04:41:24.344Z,6.10
2022-12-28T04:43:52.665Z,6.10
2022-12-28T04:46:21.305Z,6.10
2022-12-28T04:48:51.169Z,6.10
2022-12-28T04:51:22.662Z,6.10
2022-12-28T04:53:51.495Z,6.10
2022-12-28T04:56:21.230Z,6.10
2022-12-28T04:58:49.710Z,6.20
2022-12-28T05:01:20.329Z,6.20
2022-12-28T05:03:56.601Z,6.20
2022-12-28T05:06:28.106Z,6.20
2022-12-28T05:08:57.425Z,6.20
2022-12-28T05:11:27.758Z,6.20
2022-12-28T05:13:56.250Z,6.20
2022-12-28T05:16:26.108Z,6.20
2022-12-28T05:18:56.867Z,6.20
2022-12-28T05:21:27.302Z,6.30
2022-12-28T05:23:55.467Z,6.30
2022-12-28T05:26:25.584Z,6.30
2022-12-28T05:28:53.625Z,6.30
2022-12-28T05:31:24.092Z,6.30
2022-12-28T05:33:52.965Z,6.30
2022-12-28T05:36:24.846Z,6.40
2022-12-28T05:38:54.528Z,6.40
2022-12-28T05:41:24.973Z,6.40
2022-12-28T05:43:54.037Z,6.40
2022-12-28T05:46:28.468Z,6.50
2022-12-28T05:48:56.902Z,6.50
2022-12-28T05:51:28.466Z,6.50
2022-12-28T05:53:56.881Z,6.50
2022-12-28T05:56:26.962Z,6.50
2022-12-28T05:58:57.073Z,6.50
2022-12-28T06:01:27.436Z,6.60
2022-12-28T06:03:57.498Z,6.60
2022-12-28T06:06:28.053Z,6.60
2022-12-28T06:08:56.621Z,6.60
2022-12-28T06:11:27.273Z,6.60
2022-12-28T06:13:55.691Z,6.60
2022-12-28T06:16:25.640Z,6.70
2022-12-28T06:18:54.371Z,6.70
2022-12-28T06:21:24.718Z,6.80
2022-12-28T06:23:57.727Z,6.80
2022-12-28T06:26:26.373Z,6.80
2022-12-28T06:28:54.562Z,6.80
2022-12-28T06:31:25.036Z,6.80
2022-12-28T06:33:56.159Z,6.80
2022-12-28T06:36:26.188Z,6.90
2022-12-28T06:38:58.453Z,6.90
2022-12-28T06:41:28.199Z,6.90
2022-12-28T06:43:57.233Z,6.90
2022-12-28T06:46:27.979Z,7.00
2022-12-28T06:48:57.262Z,7.00
2022-12-28T06:51:27.313Z,7.00
2022-12-28T06:53:56.995Z,7.10
2022-12-28T06:56:27.481Z,7.10
2022-12-28T06:59:00.533Z,7.20
2022-12-28T07:01:33.082Z,7.20
2022-12-28T07:04:02.247Z,7.20
2022-12-28T07:06:31.266Z,7.30
2022-12-28T07:09:03.584Z,7.30
2022-12-28T07:11:32.520Z,7.40
2022-12-28T07:14:02.277Z,7.40
2022-12-28T07:19:01.091Z,7.50
2022-12-28T07:21:31.835Z,7.50
2022-12-28T07:24:01.682Z,7.50
2022-12-28T07:26:31.099Z,7.60
2022-12-28T07:29:01.659Z,7.60
2022-12-28T07:31:33.751Z,7.60
2022-12-28T07:34:03.966Z,7.70
2022-12-28T07:36:33.705Z,7.70
2022-12-28T07:39:03.826Z,7.70
2022-12-28T07:41:34.174Z,7.80
2022-12-28T07:44:05.157Z,7.70
2022-12-28T07:46:35.856Z,7.80
2022-12-28T07:49:04.221Z,7.80
2022-12-28T07:51:35.075Z,7.80
2022-12-28T07:54:05.585Z,7.80
2022-12-28T07:59:04.351Z,7.90
2022-12-28T08:01:34.807Z,7.90
2022-12-28T08:04:05.119Z,7.90
2022-12-28T08:06:35.795Z,8.00
2022-12-28T08:09:08.412Z,8.00
2022-12-28T08:11:38.288Z,8.00
2022-12-28T08:14:07.461Z,8.00
2022-12-28T08:16:38.251Z,8.00
2022-12-28T08:19:07.509Z,8.10
2022-12-28T08:21:38.052Z,8.10
2022-12-28T08:24:09.066Z,8.10
2022-12-28T08:26:38.919Z,8.20
2022-12-28T08:29:09.089Z,8.20
2022-12-28T08:31:39.302Z,8.20
2022-12-28T08:34:09.601Z,8.20
2022-12-28T08:36:38.088Z,8.20
2022-12-28T08:39:09.106Z,8.20
2022-12-28T08:41:37.512Z,8.30
2022-12-28T08:44:06.755Z,8.30
2022-12-28T08:46:36.444Z,8.30
2022-12-28T08:49:06.028Z,8.30
2022-12-28T08:51:36.947Z,8.40
2022-12-28T08:54:07.584Z,8.40
2022-12-28T08:56:39.899Z,8.50
2022-12-28T08:59:09.809Z,8.50
2022-12-28T09:01:44.239Z,8.50
2022-12-28T09:04:16.222Z,8.50
2022-12-28T09:06:44.751Z,8.60
2022-12-28T09:09:16.539Z,8.60
2022-12-28T09:11:44.825Z,8.60
2022-12-28T09:14:22.051Z,8.60
2022-12-28T09:16:52.264Z,8.70
2022-12-28T09:19:20.904Z,8.70
2022-12-28T09:21:52.978Z,8.80
2022-12-28T09:24:22.874Z,8.80
2022-12-28T09:26:53.236Z,8.80
2022-12-28T09:29:21.430Z,8.80
2022-12-28T09:31:49.907Z,8.80
2022-12-28T09:37:06.552Z,8.90
2022-12-28T09:39:37.131Z,8.90
2022-12-28T09:42:11.997Z,9.00
2022-12-28T09:44:49.589Z,9.00
2022-12-28T09:47:26.569Z,9.00
2022-12-28T09:50:06.455Z,9.00
2022-12-28T09:52:38.417Z,9.00
2022-12-28T09:55:14.894Z,9.00
2022-12-28T09:57:47.108Z,9.10
2022-12-28T10:00:21.338Z,9.10
2022-12-28T10:02:52.874Z,9.10
2022-12-28T10:05:23.790Z,9.20
2022-12-28T10:07:54.377Z,9.20
2022-12-28T10:10:28.738Z,9.30
2022-12-28T10:12:59.592Z,9.30
2022-12-28T10:15:30.748Z,9.30
2022-12-28T10:17:58.967Z,9.30
2022-12-28T10:20:27.457Z,9.30
2022-12-28T10:22:58.042Z,9.30
2022-12-28T10:25:28.584Z,9.20
2022-12-28T10:27:57.746Z,9.20
2022-12-28T10:30:29.737Z,9.20
2022-12-28T10:33:03.192Z,9.20
2022-12-28T10:35:38.471Z,9.20
2022-12-28T10:43:36.221Z,9.20
2022-12-28T10:46:07.600Z,9.20
2022-12-28T10:48:42.462Z,9.20
2022-12-28T10:51:14.459Z,9.30
2022-12-28T10:53:44.599Z,9.30
2022-12-28T10:56:27.758Z,9.30
2022-12-28T10:59:20.044Z,9.30
2022-12-28T11:01:50.116Z,9.30
2022-12-28T11:04:24.388Z,9.30
2022-12-28T11:06:54.514Z,9.30
2022-12-28T11:09:26.283Z,9.40
2022-12-28T11:11:56.373Z,9.40
2022-12-28T11:14:31.758Z,9.40
2022-12-28T11:17:15.371Z,9.50
2022-12-28T11:19:43.766Z,9.50
2022-12-28T11:22:13.505Z,9.50
2022-12-28T11:25:19.413Z,9.50
2022-12-28T11:27:49.164Z,9.50
2022-12-28T11:30:20.092Z,9.50
2022-12-28T11:32:53.177Z,9.60
2022-12-28T11:38:38.866Z,9.60
2022-12-28T11:41:07.857Z,9.60
2022-12-28T11:43:42.432Z,9.60
2022-12-28T11:46:39.690Z,9.60
2022-12-28T11:52:34.485Z,9.70
2022-12-28T11:55:24.210Z,9.70
2022-12-28T11:57:53.442Z,9.70
2022-12-28T12:00:42.940Z,9.70
2022-12-28T12:03:11.342Z,9.70
2022-12-28T12:05:53.455Z,9.70
2022-12-28T12:08:43.109Z,9.70
2022-12-28T12:11:33.334Z,9.70
2022-12-28T12:16:50.673Z,9.80
2022-12-28T12:19:24.410Z,9.80
2022-12-28T12:22:03.619Z,9.80
2022-12-28T12:27:37.315Z,9.80
2022-12-28T12:30:08.990Z,9.80
2022-12-28T12:32:46.372Z,9.80
2022-12-28T12:35:17.973Z,9.80
2022-12-28T12:37:59.381Z,9.80
2022-12-28T12:41:00.749Z,9.80
2022-12-28T12:43:33.895Z,9.80
2022-12-28T13:15:04.919Z,9.70
2022-12-28T13:17:39.949Z,9.70
2022-12-28T13:20:11.858Z,9.70
2022-12-28T13:22:47.715Z,9.70
2022-12-28T13:25:26.036Z,9.70
2022-12-28T13:27:54.511Z,9.70
2022-12-28T13:30:24.732Z,9.70
2022-12-28T13:32:59.335Z,9.70
2022-12-28T13:35:30.719Z,9.70
2022-12-28T13:38:06.797Z,9.60
2022-12-28T13:40:35.212Z,9.60
2022-12-28T13:43:35.178Z,9.60
2022-12-28T13:46:11.443Z,9.60
2022-12-28T13:48:43.530Z,9.60
2022-12-28T13:51:14.183Z,9.60
2022-12-28T13:53:48.678Z,9.60
2022-12-28T13:56:25.864Z,9.60
2022-12-28T13:59:00.188Z,9.60
2022-12-28T14:01:38.638Z,9.60
2022-12-28T14:04:51.274Z,9.60
2022-12-28T14:07:12.103Z,9.60
2022-12-28T14:09:53.341Z,9.60
2022-12-28T14:12:41.391Z,9.60
2022-12-28T14:15:21.247Z,9.60
2022-12-28T14:17:54.728Z,9.60
2022-12-28T14:23:28.049Z,9.50
2022-12-28T14:26:00.496Z,9.60
2022-12-28T14:36:45.263Z,9.50
2022-12-28T14:39:26.951Z,9.50
2022-12-28T14:42:06.761Z,9.50
2022-12-28T14:44:43.059Z,9.50
2022-12-28T14:47:37.314Z,9.50
2022-12-28T14:50:18.313Z,9.40
2022-12-28T14:52:48.915Z,9.50
2022-12-28T14:55:35.991Z,9.40
2022-12-28T14:58:19.798Z,9.40
2022-12-28T15:00:58.220Z,9.40
2022-12-28T15:03:50.953Z,9.50
2022-12-28T15:06:20.159Z,9.40
2022-12-28T15:08:50.346Z,9.40
2022-12-28T15:11:20.428Z,9.40
2022-12-28T15:13:51.051Z,9.40
2022-12-28T15:16:23.405Z,9.40
2022-12-28T15:18:57.832Z,9.40
2022-12-28T15:21:29.975Z,9.40
2022-12-28T15:24:01.730Z,9.40
2022-12-28T15:26:33.319Z,9.40
2022-12-28T15:29:07.092Z,9.40
2022-12-28T15:31:36.053Z,9.40
2022-12-28T15:34:07.499Z,9.40
2022-12-28T15:36:36.181Z,9.40
2022-12-28T15:39:04.872Z,9.40
2022-12-28T15:41:52.676Z,9.40
2022-12-28T15:44:22.845Z,9.40
2022-12-28T15:46:51.532Z,9.40
2022-12-28T15:49:20.055Z,9.40
2022-12-28T15:51:52.817Z,9.40
2022-12-28T15:54:21.068Z,9.40
2022-12-28T15:56:54.188Z,9.40
2022-12-28T15:59:24.209Z,9.40
2022-12-28T16:01:55.929Z,9.40
2022-12-28T16:04:24.675Z,9.40
2022-12-28T16:06:53.364Z,9.40
2022-12-28T16:09:22.143Z,9.40
2022-12-28T16:11:55.013Z,9.40
2022-12-28T16:14:25.448Z,9.40
2022-12-28T16:16:53.697Z,9.40
2022-12-28T16:19:22.129Z,9.40
2022-12-28T16:21:51.445Z,9.40
2022-12-28T16:24:20.310Z,9.40
2022-12-28T16:26:48.693Z,9.30
2022-12-28T16:29:18.144Z,9.30
2022-12-28T16:31:48.322Z,9.30
2022-12-28T16:34:18.431Z,9.30
2022-12-28T16:36:47.942Z,9.20
2022-12-28T16:39:17.498Z,9.20
2022-12-28T16:41:45.958Z,9.20
2022-12-28T16:44:20.665Z,9.20
2022-12-28T16:46:51.071Z,9.20
2022-12-28T16:49:19.421Z,9.20
2022-12-28T16:51:48.421Z,9.20
2022-12-28T16:54:17.818Z,9.20
2022-12-28T16:56:47.297Z,9.20
2022-12-28T16:59:17.780Z,9.20
2022-12-28T17:01:47.053Z,9.10
2022-12-28T17:04:16.894Z,9.20
2022-12-28T17:06:46.694Z,9.10
2022-12-28T17:09:15.221Z,9.10
2022-12-28T17:11:43.537Z,9.10
2022-12-28T17:16:57.298Z,9.10
2022-12-28T17:19:27.004Z,9.10
2022-12-28T17:21:55.256Z,9.10
2022-12-28T17:24:23.603Z,9.10
2022-12-28T17:29:30.320Z,9.00
2022-12-28T17:31:58.523Z,9.10
2022-12-28T17:37:05.487Z,9.10
2022-12-28T17:39:39.519Z,9.10
2022-12-28T17:42:09.322Z,9.10
2022-12-28T17:44:37.844Z,9.10
2022-12-28T17:49:41.923Z,9.10
2022-12-28T17:52:13.526Z,9.00
2022-12-28T17:54:41.624Z,9.00
2022-12-28T17:57:10.136Z,9.00
2022-12-28T17:59:39.505Z,9.00
2022-12-28T18:02:10.388Z,9.00
2022-12-28T18:04:40.319Z,9.00
2022-12-28T18:07:09.414Z,9.00
2022-12-28T18:09:39.325Z,9.00
2022-12-28T18:12:07.621Z,9.00
2022-12-28T18:14:41.698Z,9.10
2022-12-28T18:17:10.686Z,9.10
2022-12-28T18:19:43.743Z,9.10
2022-12-28T18:22:12.359Z,9.10
2022-12-28T18:24:43.526Z,9.10
2022-12-28T18:27:13.495Z,9.10
2022-12-28T18:29:42.874Z,9.10
2022-12-28T18:32:11.310Z,9.00
2022-12-28T18:34:39.845Z,9.10
2022-12-28T18:37:09.212Z,9.00
2022-12-28T18:39:37.907Z,9.10
2022-12-28T18:42:07.636Z,9.00
2022-12-28T18:44:36.192Z,9.00
2022-12-28T18:47:04.535Z,9.00
2022-12-28T18:49:33.433Z,9.00
2022-12-28T18:52:01.970Z,8.90
2022-12-28T18:54:30.203Z,8.90
2022-12-28T18:56:58.857Z,8.90
2022-12-28T18:59:29.212Z,8.90
2022-12-28T19:02:06.928Z,8.90
2022-12-28T19:04:37.148Z,8.80
2022-12-28T19:07:08.227Z,8.90
2022-12-28T19:09:36.711Z,8.90
2022-12-28T19:12:05.123Z,8.90
2022-12-28T19:14:35.379Z,8.80
2022-12-28T19:17:03.771Z,8.80
2022-12-28T19:19:31.824Z,8.80
2022-12-28T19:21:59.871Z,8.80
2022-12-28T19:24:29.205Z,8.80
2022-12-28T19:26:57.426Z,8.70
2022-12-28T19:29:25.519Z,8.70
2022-12-28T19:31:55.341Z,8.70
2022-12-28T19:34:23.747Z,8.70
2022-12-28T19:36:51.934Z,8.70
2022-12-28T19:39:23.373Z,8.70
2022-12-28T19:41:51.474Z,8.70
2022-12-28T19:44:21.070Z,8.70
2022-12-28T19:46:50.211Z,8.70
2022-12-28T19:49:19.982Z,8.70
2022-12-28T19:51:48.150Z,8.70
2022-12-28T19:54:16.515Z,8.60
2022-12-28T19:56:47.643Z,8.60
2022-12-28T19:59:15.717Z,8.60
2022-12-28T20:01:44.240Z,8.60
2022-12-28T20:04:14.225Z,8.60
2022-12-28T20:06:45.681Z,8.60
2022-12-28T20:09:15.012Z,8.60
2022-12-28T20:11:45.187Z,8.60
2022-12-28T20:14:21.665Z,8.60
2022-12-28T20:16:53.387Z,8.60
2022-12-28T20:19:23.069Z,8.60
2022-12-28T20:24:34.192Z,8.60
2022-12-28T20:29:51.073Z,8.60
2022-12-28T20:32:20.198Z,8.60
2022-12-28T20:34:49.570Z,8.60
2022-12-28T20:37:17.800Z,8.60
2022-12-28T20:39:48.469Z,8.60
2022-12-28T20:42:34.374Z,8.70
2022-12-28T20:45:03.637Z,8.60
2022-12-28T20:47:34.670Z,8.70
2022-12-28T20:50:08.501Z,8.60
2022-12-28T20:52:57.884Z,8.60
2022-12-28T20:55:30.724Z,8.70
2022-12-28T20:57:59.849Z,8.70
2022-12-28T21:00:28.398Z,8.70
2022-12-28T21:02:57.047Z,8.70
2022-12-28T21:05:25.621Z,8.80
2022-12-28T21:07:53.713Z,8.80
2022-12-28T21:10:22.260Z,8.80
2022-12-28T21:12:52.274Z,8.80
2022-12-28T21:15:20.362Z,8.80
2022-12-28T21:17:48.664Z,8.90
2022-12-28T21:20:16.807Z,8.90
2022-12-28T21:22:45.391Z,8.90
2022-12-28T21:25:13.810Z,8.90
2022-12-28T21:27:42.100Z,8.90
2022-12-28T21:30:12.841Z,8.90
2022-12-28T21:32:41.255Z,8.90
2022-12-28T21:35:10.039Z,8.90
2022-12-28T21:37:44.491Z,9.00
2022-12-28T21:40:14.268Z,9.00
2022-12-28T21:42:43.034Z,9.00
2022-12-28T21:45:14.159Z,9.00
2022-12-28T21:47:42.209Z,9.00
2022-12-28T21:50:14.268Z,9.00
2022-12-28T21:52:42.710Z,9.00
2022-12-28T21:55:31.826Z,9.00
2022-12-28T21:58:01.118Z,9.00
2022-12-28T22:00:53.552Z,9.00
2022-12-28T22:03:42.201Z,9.00
2022-12-28T22:06:10.436Z,9.00
2022-12-28T22:08:56.804Z,9.00
2022-12-28T22:11:45.148Z,9.00
2022-12-28T22:14:14.611Z,9.00
2022-12-28T22:16:48.712Z,9.00
2022-12-28T22:19:19.422Z,9.00
2022-12-28T22:21:47.560Z,9.00
2022-12-28T22:24:16.549Z,9.00
2022-12-28T22:26:44.762Z,9.10
2022-12-28T22:29:13.235Z,9.10
2022-12-28T22:31:43.412Z,9.10
2022-12-28T22:34:11.943Z,9.20
2022-12-28T22:36:43.212Z,9.20
2022-12-28T22:39:14.725Z,9.20
2022-12-28T22:41:42.929Z,9.20
2022-12-28T22:44:11.425Z,9.20
2022-12-28T22:46:41.286Z,9.30
2022-12-28T22:49:10.819Z,9.30
2022-12-28T22:51:39.062Z,9.30
2022-12-28T22:54:13.007Z,9.30
2022-12-28T22:56:41.204Z,9.30
2022-12-28T22:59:15.107Z,9.30
2022-12-28T23:01:44.744Z,9.40
2022-12-28T23:04:14.463Z,9.40
2022-12-28T23:06:43.032Z,9.40
2022-12-28T23:09:11.458Z,9.50
2022-12-28T23:11:40.403Z,9.50
2022-12-28T23:14:30.425Z,9.50
2022-12-28T23:16:58.940Z,9.50
2022-12-28T23:19:47.544Z,9.50
2022-12-28T23:22:35.320Z,9.60
2022-12-28T23:25:23.405Z,9.60
2022-12-28T23:27:54.724Z,9.60
2022-12-28T23:30:24.996Z,9.60
2022-12-28T23:32:53.366Z,9.70
2022-12-28T23:35:25.310Z,9.70
2022-12-28T23:37:53.988Z,9.70
2022-12-28T23:40:23.730Z,9.70
2022-12-28T23:42:54.071Z,9.80
2022-12-28T23:45:22.495Z,9.80
2022-12-28T23:47:53.988Z,9.80
2022-12-28T23:50:23.831Z,9.80
2022-12-28T23:52:52.169Z,9.80
2022-12-28T23:55:20.683Z,9.90
2022-12-28T23:57:49.031Z,9.90
